TimePDT,TemperatureF,Dew PointF,Humidity,Sea Level PressureIn,VisibilityMPH,Wind Direction,Wind SpeedMPH,Gust SpeedMPH,PrecipitationIn,Events,Conditions,WindDirDegrees,DateUTC
12:56 AM,46.9,33.1,59,29.82,10.0,Calm,Calm,-,N/A,,Clear,0,2013-09-20 07:56:00
1:56 AM,44.1,33.1,65,29.81,10.0,South,5.8,-,N/A,,Clear,170,2013-09-20 08:56:00
2:56 AM,42.1,32.0,67,29.79,10.0,South,5.8,-,N/A,,Clear,170,2013-09-20 09:56:00
3:56 AM,41.0,30.9,67,29.79,10.0,Calm,Calm,-,N/A,,Clear,0,2013-09-20 10:56:00
4:56 AM,39.0,30.9,73,29.78,10.0,South,5.8,-,N/A,,Clear,170,2013-09-20 11:56:00
5:56 AM,39.9,30.9,70,29.77,10.0,SSE,8.1,-,N/A,,Clear,160,2013-09-20 12:56:00
6:56 AM,37.9,30.9,76,29.77,10.0,ESE,3.5,-,N/A,,Clear,110,2013-09-20 13:56:00
7:56 AM,44.1,30.9,60,29.77,10.0,SE,3.5,-,N/A,,Clear,140,2013-09-20 14:56:00
8:56 AM,55.0,30.9,40,29.73,10.0,East,3.5,-,N/A,,Clear,100,2013-09-20 15:56:00
9:56 AM,64.0,28.0,26,29.70,10.0,South,4.6,-,N/A,,Clear,190,2013-09-20 16:56:00
10:56 AM,69.1,25.0,19,29.67,10.0,Variable,4.6,-,N/A,,Clear,0,2013-09-20 17:56:00
11:56 AM,72.0,27.0,19,29.66,10.0,WSW,5.8,-,N/A,,Clear,250,2013-09-20 18:56:00
12:56 PM,75.9,23.0,14,29.63,10.0,SW,16.1,23.0,N/A,,Clear,220,2013-09-20 19:56:00
1:56 PM,79.0,25.0,14,29.61,10.0,SSW,12.7,-,N/A,,Clear,210,2013-09-20 20:56:00
2:56 PM,78.1,30.9,18,29.59,10.0,NW,12.7,19.6,N/A,,Clear,320,2013-09-20 21:56:00
3:56 PM,75.0,35.1,23,29.59,10.0,NW,16.1,-,N/A,,Clear,310,2013-09-20 22:56:00
4:56 PM,71.1,39.0,31,29.60,10.0,NW,16.1,21.9,N/A,,Clear,310,2013-09-20 23:56:00
5:56 PM,64.9,43.0,45,29.61,10.0,WNW,18.4,25.3,N/A,,Clear,300,2013-09-21 00:56:00
6:56 PM,59.0,44.1,58,29.67,10.0,NW,19.6,28.8,N/A,,Clear,320,2013-09-21 01:56:00
7:56 PM,57.9,43.0,58,29.69,10.0,NW,13.8,-,N/A,,Overcast,310,2013-09-21 02:56:00
8:56 PM,57.0,44.1,62,29.70,10.0,Calm,Calm,-,0.00,,Overcast,0,2013-09-21 03:56:00
9:56 PM,53.1,46.9,80,29.71,10.0,ESE,3.5,-,0.01,Rain,Light Rain,120,2013-09-21 04:56:00
10:56 PM,52.0,46.9,83,29.69,10.0,North,5.8,-,0.01,,Overcast,360,2013-09-21 05:56:00
11:56 PM,53.1,45.0,74,29.65,10.0,SE,8.1,-,N/A,,Overcast,140,2013-09-21 06:56:00